TFM - Tactical Decision Aid
ID: Runway Winds: CIG/VIS Threshold:

KMSP - Minneapolis-St Paul, MN, US

Updated at: 0243 UTC 12 May 2021
Latest TAF at: 2320 UTC 11 May 2021

TAF Board

Time0153Z 12/03Z 12/04Z 12/05Z 12/06Z 12/07Z 12/08Z 12/09Z 12/10Z 12/11Z 12/12Z 12/13Z 12/14Z 12/15Z>>
Type OBS PRVL PRVL PRVL PRVL PRVL PRVL PRVL PRVL PRVL PRVL PRVL PRVL PRVL
VIS 10 >6 >6 >6 >6 >6 >6 >6 >6 >6 >6 >6 >6 >6
CIG -- -- -- -- -- -- -- -- -- -- -- -- -- --
Cover CLR SKC SKC SKC SKC SKC SKC SKC SKC SKC SKC SKC SKC SKC
FltCat VFR VFR VFR VFR VFR VFR VFR VFR VFR VFR VFR VFR VFR VFR
WX -- -- -- -- -- -- -- -- -- -- -- -- -- --
WDir 160 VRB VRB VRB VRB VRB VRB VRB VRB VRB VRB VRB VRB 200
WSpd 4 3 3 3 3 3 3 3 3 3 3 3 3 6
WGst -- -- -- -- -- -- -- -- -- -- -- -- -- --

TDA Impact Legend

  None Marginal Slight Moderate High
Visibility (sm) >5 3≤X≤5 1≤X<3 0.5≤X<1 <0.5
Ceiling (100 ft) >30 10≤X≤30 4≤X<10 2≤X<4 <2
Wind Speed (kt) <15 15≤X<25 25≤X<30 ≥30
Wind Gust (kt) <15 15≤X<25 25≤X<35 ≥35
Weather No Wx Reported VCTS -TS,-FZRA TS,FZRA +TS,+FZRA
TAF
KMSP 112320Z 1200/1306 VRB03KT P6SM SKC
  FM121500 20006KT P6SM SKC


METAR
KMSP 120153Z 16004KT 10SM CLR 14/M06 A3036 RMK AO2 SLP283 T01441056
KMSP 120053Z 00000KT 10SM CLR 16/M06 A3034 RMK AO2 SLP278 T01561061
KMSP 112353Z 00000KT 10SM FEW075 16/M06 A3033 RMK AO2 SLP276 T01611061 10172 20139 53003

Radar Display
Forecast Discussion